Time;durP1;ratioP1;P1;durP2;ratioP2;P2;SDS_P1;SDS_P2;PMS_P1;PMS_P2;Temp;Humidity;BMP_temperature;BMP_pressure;BME280_temperature;BME280_humidity;BME280_pressure;Samples;Min_cycle;Max_cycle;Signal;HPM_P1;HPM_P2
2023/04/21 00:00:53;;;;;;;6.63;6.03;;;14.10;81.60;;;;;;5032369;28;20371;-71
2023/04/21 00:03:20;;;;;;;6.50;5.85;;;14.10;81.50;;;;;;5032673;28;20022;-72
2023/04/21 00:05:47;;;;;;;6.05;5.55;;;14.10;81.60;;;;;;5032217;28;20387;-68
2023/04/21 00:08:13;;;;;;;5.85;5.28;;;14.10;81.40;;;;;;5032757;28;20040;-64
2023/04/21 00:10:39;;;;;;;7.03;6.32;;;14.20;81.40;;;;;;5032578;28;20084;-68
2023/04/21 00:13:04;;;;;;;7.00;6.40;;;14.10;81.50;;;;;;5033141;28;20467;-69
2023/04/21 00:15:30;;;;;;;7.32;6.68;;;14.20;81.30;;;;;;5032126;28;20099;-71
2023/04/21 00:17:56;;;;;;;6.45;5.85;;;14.10;81.70;;;;;;5032494;28;20028;-71
2023/04/21 00:20:22;;;;;;;6.18;5.60;;;14.10;82.00;;;;;;5032140;28;20037;-65
2023/04/21 00:22:49;;;;;;;6.90;6.30;;;14.20;81.80;;;;;;5034611;28;20083;-63
2023/04/21 00:25:15;;;;;;;7.35;6.65;;;14.10;81.90;;;;;;5036501;28;20053;-62
2023/04/21 00:27:40;;;;;;;7.00;6.28;;;14.10;81.50;;;;;;5036551;28;20487;-62
2023/04/21 00:30:07;;;;;;;7.00;6.30;;;14.20;81.20;;;;;;5036969;28;20470;-62
2023/04/21 00:32:32;;;;;;;6.65;6.15;;;14.10;81.40;;;;;;5049193;28;20095;-62
2023/04/21 00:34:58;;;;;;;6.50;5.90;;;14.10;81.90;;;;;;5052796;28;20471;-62
2023/04/21 00:37:23;;;;;;;6.80;6.20;;;14.00;82.70;;;;;;5034376;28;20467;-62
2023/04/21 00:39:49;;;;;;;7.30;6.15;;;14.00;82.20;;;;;;5035631;28;20025;-62
2023/04/21 00:42:16;;;;;;;9.15;6.45;;;14.00;82.10;;;;;;5035258;28;20502;-62
2023/04/21 00:44:41;;;;;;;9.30;5.72;;;14.00;82.10;;;;;;5035962;28;20033;-62
2023/04/21 00:47:07;;;;;;;6.35;5.85;;;14.00;82.20;;;;;;5036127;28;20382;-62
2023/04/21 00:49:33;;;;;;;7.15;6.15;;;14.00;82.50;;;;;;5035977;28;20020;-62
2023/04/21 00:51:59;;;;;;;7.75;6.55;;;13.90;82.70;;;;;;5036092;28;20423;-62
2023/04/21 00:54:26;;;;;;;7.25;6.47;;;13.90;82.80;;;;;;5035928;28;20033;-62
2023/04/21 00:56:51;;;;;;;6.63;6.03;;;13.90;82.80;;;;;;5035857;28;20120;-62
2023/04/21 00:59:17;;;;;;;7.30;6.70;;;13.90;83.20;;;;;;5036007;28;20112;-62
2023/04/21 01:01:43;;;;;;;7.78;7.07;;;13.90;83.40;;;;;;5035637;28;20041;-62
2023/04/21 01:04:09;;;;;;;6.78;6.18;;;14.00;82.60;;;;;;5035726;28;20021;-65
2023/04/21 01:06:35;;;;;;;7.88;7.22;;;14.10;82.20;;;;;;5035725;28;20100;-62
2023/04/21 01:09:01;;;;;;;8.10;7.40;;;14.10;82.00;;;;;;5035859;28;20017;-62
2023/04/21 01:11:27;;;;;;;8.20;7.32;;;14.10;82.30;;;;;;5035514;28;20021;-64
2023/04/21 01:13:53;;;;;;;7.32;6.63;;;14.00;82.30;;;;;;5035581;28;20039;-62
2023/04/21 01:16:20;;;;;;;7.25;6.65;;;14.00;82.50;;;;;;5035670;28;20378;-62
2023/04/21 01:18:46;;;;;;;7.70;7.07;;;14.00;82.80;;;;;;5035340;28;20063;-64
2023/04/21 01:21:13;;;;;;;7.47;6.80;;;14.00;83.00;;;;;;5035815;28;20067;-62
2023/04/21 01:23:42;;;;;;;8.20;7.50;;;14.00;83.10;;;;;;5034687;28;20060;-64
2023/04/21 01:26:08;;;;;;;9.27;7.07;;;14.10;82.60;;;;;;5034898;28;20647;-64
2023/04/21 01:28:33;;;;;;;8.40;7.70;;;14.00;83.00;;;;;;5035127;28;20026;-62
2023/04/21 01:30:59;;;;;;;7.93;7.22;;;14.00;83.00;;;;;;5035399;28;20033;-62
2023/04/21 01:33:25;;;;;;;6.85;6.18;;;13.90;83.50;;;;;;5034725;28;20018;-62
2023/04/21 01:35:51;;;;;;;7.15;6.55;;;13.90;84.10;;;;;;5035362;28;20482;-62
2023/04/21 01:38:17;;;;;;;7.95;7.22;;;13.90;84.10;;;;;;5035123;28;20105;-62
2023/04/21 01:40:46;;;;;;;7.72;7.10;;;13.90;84.10;;;;;;5035192;28;20033;-62
2023/04/21 01:43:13;;;;;;;9.45;8.63;;;14.00;83.90;;;;;;5034896;28;20086;-64
2023/04/21 01:45:39;;;;;;;8.95;8.15;;;14.00;83.80;;;;;;5035142;28;20018;-62
2023/04/21 01:48:05;;;;;;;9.65;8.85;;;14.10;84.00;;;;;;5034911;28;20025;-62
2023/04/21 01:50:30;;;;;;;8.25;7.65;;;14.00;84.20;;;;;;5035219;28;20064;-62
2023/04/21 01:52:56;;;;;;;9.45;8.45;;;14.10;84.40;;;;;;5034992;28;20021;-68
2023/04/21 01:55:22;;;;;;;8.13;7.43;;;14.00;84.80;;;;;;5033598;28;20033;-62
2023/04/21 01:57:47;;;;;;;9.68;8.85;;;13.90;85.40;;;;;;5034824;28;20022;-62
2023/04/21 02:00:13;;;;;;;9.20;8.30;;;14.00;85.10;;;;;;5035321;28;20033;-72
2023/04/21 02:02:39;;;;;;;10.43;9.43;;;13.90;85.70;;;;;;5034720;28;20041;-67
2023/04/21 02:05:05;;;;;;;10.57;9.02;;;14.00;85.40;;;;;;5035642;28;20382;-65
2023/04/21 02:07:31;;;;;;;10.38;9.48;;;14.00;85.70;;;;;;5034575;28;20040;-71
2023/04/21 02:09:56;;;;;;;11.55;10.43;;;13.90;85.90;;;;;;5034762;28;20482;-65
2023/04/21 02:12:22;;;;;;;10.90;10.00;;;14.10;85.80;;;;;;5034513;28;20055;-67
2023/04/21 02:14:48;;;;;;;11.45;10.35;;;14.00;86.10;;;;;;5034418;28;20434;-67
2023/04/21 02:17:14;;;;;;;10.48;9.55;;;13.90;86.70;;;;;;5034413;28;20017;-66
2023/04/21 02:19:39;;;;;;;9.65;8.75;;;14.00;86.50;;;;;;5034337;28;20466;-68
2023/04/21 02:22:07;;;;;;;14.10;12.80;;;14.00;86.50;;;;;;5034609;28;20034;-62
2023/04/21 02:24:33;;;;;;;11.48;10.48;;;14.10;86.50;;;;;;5034414;28;20049;-68
2023/04/21 02:26:59;;;;;;;11.82;10.82;;;14.00;87.80;;;;;;5034025;28;20037;-66
2023/04/21 02:29:24;;;;;;;12.30;11.20;;;13.90;87.40;;;;;;5034505;28;20017;-67
2023/04/21 02:31:50;;;;;;;13.55;12.27;;;13.80;87.70;;;;;;5034014;28;20029;-68
2023/04/21 02:34:16;;;;;;;12.15;10.95;;;13.90;87.50;;;;;;5034206;28;20494;-70
2023/04/21 02:36:42;;;;;;;13.13;11.55;;;13.90;87.90;;;;;;5032982;28;20036;-69
2023/04/21 02:39:07;;;;;;;12.30;11.18;;;13.90;88.20;;;;;;5048807;28;20044;-70
2023/04/21 02:41:33;;;;;;;15.23;13.93;;;13.80;88.30;;;;;;5070334;28;20036;-70
2023/04/21 02:43:59;;;;;;;14.25;12.85;;;13.90;88.30;;;;;;5058090;28;20386;-67
2023/04/21 02:46:24;;;;;;;14.43;13.02;;;13.90;88.70;;;;;;5053054;28;20500;-67
2023/04/21 02:48:50;;;;;;;16.17;14.68;;;13.90;88.80;;;;;;5052452;28;20020;-69
2023/04/21 02:51:16;;;;;;;16.25;14.85;;;13.90;88.90;;;;;;5053939;28;20025;-70
2023/04/21 02:53:42;;;;;;;14.98;13.68;;;13.90;88.80;;;;;;5052374;28;20442;-70
2023/04/21 02:56:08;;;;;;;14.15;12.93;;;13.80;89.10;;;;;;5053405;28;20095;-70
2023/04/21 02:58:35;;;;;;;13.13;11.98;;;13.70;89.90;;;;;;5053657;28;20028;-70
2023/04/21 03:01:01;;;;;;;12.63;11.52;;;13.60;90.10;;;;;;5053264;28;20061;-69
2023/04/21 03:03:27;;;;;;;13.43;12.20;;;13.60;90.20;;;;;;5053658;28;20394;-68
2023/04/21 03:06:03;;;;;;;14.57;13.30;;;13.60;90.40;;;;;;5053514;28;20025;-65
2023/04/21 03:08:29;;;;;;;16.38;14.88;;;13.60;90.60;;;;;;5053322;28;20056;-71
2023/04/21 03:10:56;;;;;;;15.65;14.25;;;13.60;90.50;;;;;;5053517;28;20037;-64
2023/04/21 03:13:23;;;;;;;14.60;13.30;;;13.60;90.60;;;;;;5053402;28;20025;-64
2023/04/21 03:15:49;;;;;;;14.55;13.18;;;13.60;90.50;;;;;;5053038;28;20027;-68
2023/04/21 03:18:15;;;;;;;14.25;13.05;;;13.60;90.50;;;;;;5053266;28;20070;-66
2023/04/21 03:20:40;;;;;;;15.27;13.90;;;13.60;90.40;;;;;;5053074;28;20108;-69
2023/04/21 03:23:06;;;;;;;16.48;14.93;;;13.60;90.60;;;;;;5053195;28;20029;-70
2023/04/21 03:25:32;;;;;;;15.13;13.82;;;13.70;90.50;;;;;;5052300;28;20025;-67
2023/04/21 03:27:57;;;;;;;14.93;13.63;;;13.70;90.50;;;;;;5052928;28;20516;-69
2023/04/21 03:30:25;;;;;;;16.27;14.88;;;13.80;90.20;;;;;;5053008;28;20021;-69
2023/04/21 03:32:50;;;;;;;14.35;13.05;;;13.80;90.30;;;;;;5052921;28;20025;-66
2023/04/21 03:35:16;;;;;;;13.95;12.75;;;13.70;90.40;;;;;;5052981;28;20031;-65
2023/04/21 03:37:42;;;;;;;16.77;15.27;;;13.60;90.60;;;;;;5052903;28;20512;-71
2023/04/21 03:40:08;;;;;;;15.80;14.32;;;13.60;90.60;;;;;;5052756;28;20021;-65
2023/04/21 03:42:34;;;;;;;15.55;14.05;;;13.60;90.70;;;;;;5052951;28;20114;-66
2023/04/21 03:45:04;;;;;;;15.00;13.70;;;13.60;90.80;;;;;;5052462;28;20021;-62
2023/04/21 03:47:30;;;;;;;15.07;13.77;;;13.70;90.50;;;;;;5052797;28;20025;-64
2023/04/21 03:49:56;;;;;;;15.40;13.93;;;13.70;90.50;;;;;;5052781;28;20023;-68
2023/04/21 03:52:22;;;;;;;16.42;14.93;;;13.60;90.70;;;;;;5052841;28;20043;-62
2023/04/21 03:54:48;;;;;;;14.98;13.68;;;13.60;90.70;;;;;;5052673;28;20537;-64
2023/04/21 03:57:14;;;;;;;16.85;15.32;;;13.50;90.90;;;;;;5052223;28;20108;-66
2023/04/21 03:59:40;;;;;;;15.40;14.00;;;13.60;90.80;;;;;;5052771;28;20021;-66
2023/04/21 04:02:05;;;;;;;14.85;13.55;;;13.60;90.90;;;;;;5052377;28;20114;-67
2023/04/21 04:04:31;;;;;;;17.60;15.90;;;13.60;90.80;;;;;;5051386;28;20029;-69
2023/04/21 04:06:57;;;;;;;14.50;13.18;;;13.60;90.90;;;;;;5052228;28;20039;-68
2023/04/21 04:09:23;;;;;;;12.77;11.68;;;13.60;90.80;;;;;;5052643;28;20159;-62
2023/04/21 04:11:48;;;;;;;12.90;11.82;;;13.60;91.00;;;;;;5051917;28;20032;-71
2023/04/21 04:14:14;;;;;;;15.73;14.30;;;13.60;90.80;;;;;;5052423;28;20048;-70
2023/04/21 04:16:40;;;;;;;15.95;14.52;;;13.60;90.90;;;;;;5036282;28;20115;-69
2023/04/21 04:19:06;;;;;;;15.30;14.00;;;13.60;90.80;;;;;;5048200;28;20573;-66
2023/04/21 04:21:32;;;;;;;17.05;15.40;;;13.60;90.80;;;;;;5046393;28;20045;-64
2023/04/21 04:23:58;;;;;;;16.08;14.43;;;13.60;90.90;;;;;;5033710;28;20506;-70
2023/04/21 04:26:25;;;;;;;14.30;13.10;;;13.60;91.00;;;;;;5032421;28;20192;-68
2023/04/21 04:28:55;;;;;;;15.50;14.00;;;13.50;91.10;;;;;;5034160;28;20056;-71
2023/04/21 04:31:24;;;;;;;26.30;23.67;;;13.60;90.80;;;;;;5037438;28;20436;-65
2023/04/21 04:33:50;;;;;;;26.90;24.10;;;13.30;91.20;;;;;;5052093;28;20024;-66
2023/04/21 04:36:16;;;;;;;29.42;26.52;;;12.20;93.20;;;;;;5042580;28;20471;-70
2023/04/21 04:38:42;;;;;;;28.20;25.58;;;11.40;94.80;;;;;;5046751;28;20036;-69
2023/04/21 04:41:07;;;;;;;18.33;16.50;;;10.70;96.70;;;;;;5051538;28;20490;-63
2023/04/21 04:43:37;;;;;;;15.77;14.18;;;10.90;97.30;;;;;;5046166;28;20105;-63
2023/04/21 04:46:04;;;;;;;17.40;15.60;;;11.50;96.10;;;;;;5033033;28;20060;-64
2023/04/21 04:48:29;;;;;;;17.52;15.93;;;12.00;95.10;;;;;;5031288;28;20540;-62
2023/04/21 04:50:55;;;;;;;17.98;16.17;;;12.30;94.30;;;;;;5032160;28;20033;-67
2023/04/21 04:53:21;;;;;;;17.20;15.52;;;12.60;93.80;;;;;;5032226;28;20025;-68
2023/04/21 04:55:46;;;;;;;15.75;14.25;;;12.70;93.60;;;;;;5031724;28;20534;-63
2023/04/21 04:58:12;;;;;;;16.55;14.85;;;12.90;93.20;;;;;;5031913;28;20463;-63
2023/04/21 05:00:38;;;;;;;19.70;17.80;;;13.00;92.90;;;;;;5034815;28;20100;-65
2023/04/21 05:03:04;;;;;;;17.38;15.63;;;13.00;92.80;;;;;;5051443;28;20112;-62
2023/04/21 05:05:29;;;;;;;15.98;14.38;;;13.10;92.60;;;;;;5051594;28;20082;-63
2023/04/21 05:07:56;;;;;;;16.58;14.15;;;13.10;92.80;;;;;;5049545;28;20054;-64
2023/04/21 05:10:22;;;;;;;18.92;17.13;;;13.10;92.70;;;;;;5055449;28;20025;-63
2023/04/21 05:12:48;;;;;;;19.25;17.38;;;13.10;92.80;;;;;;5055621;28;20478;-65
2023/04/21 05:15:13;;;;;;;17.77;16.10;;;13.20;92.40;;;;;;5054450;28;20096;-63
2023/04/21 05:17:39;;;;;;;19.80;17.90;;;13.30;92.20;;;;;;5054178;28;20025;-62
2023/04/21 05:20:06;;;;;;;21.75;19.65;;;13.40;92.00;;;;;;5049954;28;20017;-63
2023/04/21 05:22:35;;;;;;;18.63;16.73;;;13.40;92.00;;;;;;5032013;28;20120;-62
2023/04/21 05:25:01;;;;;;;20.75;18.75;;;13.30;92.10;;;;;;5037403;28;20386;-65
2023/04/21 05:27:27;;;;;;;19.80;17.95;;;13.40;91.90;;;;;;5037456;28;20025;-66
2023/04/21 05:29:54;;;;;;;22.63;20.52;;;13.40;91.90;;;;;;5051195;28;20025;-63
2023/04/21 05:32:19;;;;;;;21.67;19.67;;;13.50;91.80;;;;;;5055166;28;20107;-64
2023/04/21 05:34:45;;;;;;;24.33;22.13;;;13.50;91.70;;;;;;5041228;28;20132;-63
2023/04/21 05:37:11;;;;;;;23.63;21.42;;;13.50;91.70;;;;;;5033789;28;20052;-63
2023/04/21 05:39:37;;;;;;;22.33;20.15;;;13.50;91.80;;;;;;5058312;28;20024;-64
2023/04/21 05:42:02;;;;;;;23.92;21.65;;;13.50;91.80;;;;;;5074103;28;20043;-62
2023/04/21 05:44:28;;;;;;;27.63;25.02;;;13.50;91.90;;;;;;5075052;28;20021;-63
2023/04/21 05:46:54;;;;;;;27.05;24.45;;;13.50;91.80;;;;;;5054792;28;20030;-62
2023/04/21 05:49:19;;;;;;;25.23;22.92;;;13.40;91.80;;;;;;5074959;28;20377;-63
2023/04/21 05:51:45;;;;;;;25.90;23.50;;;13.40;91.90;;;;;;5074995;28;20047;-63
2023/04/21 05:54:11;;;;;;;26.80;24.17;;;13.40;92.10;;;;;;5059009;28;20087;-63
2023/04/21 05:56:37;;;;;;;27.00;24.60;;;13.50;92.00;;;;;;5056632;28;20041;-65
2023/04/21 05:59:02;;;;;;;26.65;24.17;;;13.40;92.00;;;;;;5054743;28;20064;-62
2023/04/21 06:01:28;;;;;;;27.33;24.75;;;13.40;92.00;;;;;;5037820;28;20037;-64
2023/04/21 06:03:54;;;;;;;24.92;22.58;;;13.50;92.10;;;;;;5056675;28;20025;-64
2023/04/21 06:06:19;;;;;;;32.92;29.83;;;13.40;92.10;;;;;;5054684;28;20033;-69
2023/04/21 06:08:45;;;;;;;31.67;28.48;;;13.50;92.20;;;;;;5044462;28;20021;-63
2023/04/21 06:11:11;;;;;;;32.22;29.10;;;13.30;92.50;;;;;;5045225;28;20041;-63
2023/04/21 06:13:36;;;;;;;25.30;22.90;;;13.50;92.80;;;;;;5037155;28;20026;-67
2023/04/21 06:16:02;;;;;;;31.88;28.98;;;13.50;92.80;;;;;;5040941;28;20112;-72
2023/04/21 06:18:28;;;;;;;30.73;27.85;;;13.50;92.60;;;;;;5052631;28;20104;-66
2023/04/21 06:20:54;;;;;;;31.33;28.30;;;13.50;92.40;;;;;;5032903;28;20124;-64
2023/04/21 06:23:20;;;;;;;30.98;27.77;;;13.60;92.20;;;;;;5033630;28;20021;-64
2023/04/21 06:25:46;;;;;;;29.75;26.92;;;13.40;92.20;;;;;;5032385;28;20109;-64
2023/04/21 06:28:12;;;;;;;30.63;27.67;;;13.50;92.40;;;;;;5034080;28;20025;-64
2023/04/21 06:30:38;;;;;;;30.27;27.48;;;13.50;92.30;;;;;;5034117;28;20513;-64
2023/04/21 06:33:05;;;;;;;28.52;25.73;;;13.60;92.20;;;;;;5034242;28;20033;-64
2023/04/21 06:35:31;;;;;;;29.40;26.20;;;13.60;92.00;;;;;;5034233;28;20494;-65
2023/04/21 06:37:56;;;;;;;27.08;24.58;;;13.60;92.00;;;;;;5034134;28;20026;-64
2023/04/21 06:40:22;;;;;;;27.33;24.83;;;13.60;92.00;;;;;;5033983;28;20024;-65
2023/04/21 06:42:49;;;;;;;26.75;24.35;;;13.70;92.00;;;;;;5034406;28;20053;-66
2023/04/21 06:45:15;;;;;;;25.05;22.65;;;13.80;92.10;;;;;;5034335;28;20072;-66
2023/04/21 06:47:40;;;;;;;26.58;23.98;;;13.90;91.90;;;;;;5034146;28;20017;-66
2023/04/21 06:50:07;;;;;;;27.02;24.58;;;13.90;91.70;;;;;;5033963;28;20021;-65
2023/04/21 06:52:33;;;;;;;26.45;23.80;;;14.00;91.60;;;;;;5034006;28;20021;-66
2023/04/21 06:54:58;;;;;;;26.85;24.35;;;14.10;91.50;;;;;;5033789;28;20038;-69
2023/04/21 06:57:24;;;;;;;26.85;24.30;;;14.10;91.40;;;;;;5032469;28;20109;-67
2023/04/21 06:59:50;;;;;;;26.95;24.23;;;14.10;91.10;;;;;;5033971;28;20451;-67
2023/04/21 07:02:15;;;;;;;25.95;23.27;;;14.10;91.00;;;;;;5032639;28;20040;-67
2023/04/21 07:04:41;;;;;;;26.88;24.15;;;14.10;91.10;;;;;;5033518;28;20543;-69
2023/04/21 07:07:07;;;;;;;26.30;23.80;;;14.00;90.90;;;;;;5033677;28;20029;-68
2023/04/21 07:09:32;;;;;;;27.88;25.27;;;14.00;91.00;;;;;;5033397;28;20104;-67
2023/04/21 07:11:59;;;;;;;25.05;22.55;;;14.10;91.30;;;;;;5033447;28;20455;-69
2023/04/21 07:14:25;;;;;;;26.15;23.60;;;14.10;90.80;;;;;;5033440;28;20103;-67
2023/04/21 07:16:50;;;;;;;24.60;22.38;;;14.10;90.70;;;;;;5033334;28;20072;-66
2023/04/21 07:19:16;;;;;;;24.80;22.48;;;14.10;90.70;;;;;;5033457;28;20022;-66
2023/04/21 07:21:42;;;;;;;25.42;22.83;;;14.30;90.70;;;;;;5032945;28;20040;-67
2023/04/21 07:24:08;;;;;;;25.17;22.73;;;14.30;90.60;;;;;;5033105;28;20474;-68
2023/04/21 07:26:33;;;;;;;23.73;21.52;;;14.40;90.50;;;;;;5031873;28;20121;-64
2023/04/21 07:28:59;;;;;;;24.27;21.95;;;14.40;90.20;;;;;;5033001;28;20497;-66
2023/04/21 07:31:25;;;;;;;19.33;17.15;;;14.50;90.10;;;;;;5032278;28;20029;-65
2023/04/21 07:33:50;;;;;;;16.10;14.52;;;14.50;90.20;;;;;;5033223;28;20028;-64
2023/04/21 07:36:16;;;;;;;22.35;20.25;;;14.60;90.30;;;;;;5032727;28;20037;-66
2023/04/21 07:38:42;;;;;;;23.73;21.35;;;14.70;89.60;;;;;;5033233;28;20074;-66
2023/04/21 07:41:12;;;;;;;23.10;20.98;;;14.70;89.60;;;;;;5033034;28;20064;-65
2023/04/21 07:43:38;;;;;;;23.77;21.67;;;14.80;89.50;;;;;;5032983;28;20056;-64
2023/04/21 07:46:05;;;;;;;24.00;21.80;;;14.80;89.50;;;;;;5032873;28;20055;-64
2023/04/21 07:48:30;;;;;;;22.20;20.10;;;14.80;89.20;;;;;;5032860;28;20099;-64
2023/04/21 07:50:59;;;;;;;21.58;19.48;;;14.80;89.50;;;;;;5032487;28;20474;-65
2023/04/21 07:53:26;;;;;;;23.42;20.67;;;14.90;90.00;;;;;;5033397;28;20033;-68
2023/04/21 07:55:52;;;;;;;23.27;20.35;;;15.00;89.80;;;;;;5032633;28;20021;-65
2023/04/21 07:58:17;;;;;;;20.60;18.70;;;15.00;88.90;;;;;;5031278;28;20414;-64
2023/04/21 08:00:43;;;;;;;21.52;19.27;;;15.00;88.20;;;;;;5032295;28;20021;-64
2023/04/21 08:03:09;;;;;;;22.35;20.15;;;15.10;88.30;;;;;;5031501;28;20021;-67
2023/04/21 08:05:34;;;;;;;22.10;20.00;;;15.10;88.40;;;;;;5032262;28;20017;-66
2023/04/21 08:08:00;;;;;;;22.02;19.92;;;15.10;88.70;;;;;;5032796;28;20425;-64
2023/04/21 08:10:26;;;;;;;22.02;19.88;;;15.10;88.50;;;;;;5032649;28;20119;-64
2023/04/21 08:12:52;;;;;;;21.98;19.90;;;15.10;88.90;;;;;;5031504;28;20060;-66
2023/04/21 08:15:18;;;;;;;23.58;21.38;;;15.10;88.00;;;;;;5032235;28;20056;-66
2023/04/21 08:17:43;;;;;;;20.75;18.75;;;15.10;88.80;;;;;;5032555;28;20029;-64
2023/04/21 08:20:09;;;;;;;20.42;18.63;;;15.10;87.90;;;;;;5032254;28;20027;-64
2023/04/21 08:22:35;;;;;;;19.75;17.85;;;15.20;87.00;;;;;;5031151;28;20100;-66
2023/04/21 08:25:02;;;;;;;20.15;18.25;;;15.20;87.00;;;;;;5032845;28;20459;-64
2023/04/21 08:27:27;;;;;;;19.73;17.83;;;15.10;86.70;;;;;;5032214;28;20509;-64
2023/04/21 08:29:53;;;;;;;22.83;18.58;;;15.10;87.20;;;;;;5031711;28;20097;-64
2023/04/21 08:32:22;;;;;;;18.13;16.33;;;15.10;87.00;;;;;;5032413;28;20090;-65
2023/04/21 08:34:50;;;;;;;18.50;16.80;;;15.20;86.70;;;;;;5039671;23;20125;-66
2023/04/21 08:37:17;;;;;;;18.27;16.48;;;15.10;86.40;;;;;;5012639;28;20022;-68
2023/04/21 08:39:43;;;;;;;17.13;15.52;;;15.20;87.10;;;;;;5012607;28;20113;-68
2023/04/21 08:42:09;;;;;;;17.67;15.98;;;15.20;87.00;;;;;;5012767;28;20479;-65
2023/04/21 08:44:34;;;;;;;17.45;15.85;;;15.30;86.30;;;;;;5015718;28;20528;-66
2023/04/21 08:47:00;;;;;;;17.58;15.77;;;15.30;85.50;;;;;;5016341;28;20552;-67
2023/04/21 08:49:28;;;;;;;13.65;12.25;;;15.30;85.50;;;;;;5016363;28;20028;-65
2023/04/21 08:51:54;;;;;;;16.50;14.75;;;15.30;86.40;;;;;;5016098;28;20037;-65
2023/04/21 08:54:20;;;;;;;17.70;16.00;;;15.30;86.00;;;;;;5016416;28;20026;-65
2023/04/21 08:56:47;;;;;;;18.15;16.33;;;15.40;85.30;;;;;;5016211;28;20026;-68
2023/04/21 08:59:13;;;;;;;18.63;16.85;;;15.40;85.30;;;;;;5016424;28;20516;-70
2023/04/21 09:02:05;;;;;;;16.52;14.93;;;15.40;84.50;;;;;;5015756;28;20306;-63
2023/04/21 09:04:31;;;;;;;16.90;15.18;;;15.40;85.10;;;;;;5008858;28;20040;-63
2023/04/21 09:06:57;;;;;;;14.30;13.00;;;15.30;85.90;;;;;;5015757;28;20032;-64
2023/04/21 09:09:22;;;;;;;13.60;12.40;;;15.40;85.60;;;;;;5016077;28;20025;-67
2023/04/21 09:11:58;;;;;;;12.27;11.07;;;15.40;85.90;;;;;;5016253;28;20026;-64
2023/04/21 09:14:33;;;;;;;12.85;11.18;;;15.40;85.80;;;;;;5016261;28;20026;-68
2023/04/21 09:17:03;;;;;;;15.13;13.65;;;15.50;85.80;;;;;;5015439;28;20037;-69
2023/04/21 09:19:32;;;;;;;16.20;14.70;;;15.50;85.90;;;;;;5015860;28;20566;-67
2023/04/21 09:21:59;;;;;;;16.30;14.75;;;15.60;84.60;;;;;;5015867;28;20390;-66
2023/04/21 09:24:25;;;;;;;14.25;12.85;;;15.50;84.10;;;;;;5015824;28;20022;-66
2023/04/21 09:26:52;;;;;;;16.98;14.65;;;15.50;84.90;;;;;;5015784;28;20114;-65
2023/04/21 09:29:20;;;;;;;15.93;14.43;;;15.50;83.80;;;;;;5015830;28;20022;-71
2023/04/21 09:31:46;;;;;;;15.57;14.15;;;15.50;83.90;;;;;;5015394;28;20026;-65
2023/04/21 09:34:18;;;;;;;12.18;10.98;;;15.50;83.70;;;;;;5015345;28;20030;-65
2023/04/21 09:36:45;;;;;;;12.80;11.60;;;15.50;84.60;;;;;;5015493;28;20034;-66
2023/04/21 09:39:10;;;;;;;8.23;7.50;;;15.50;84.30;;;;;;5015884;28;20366;-68
2023/04/21 09:41:36;;;;;;;12.20;11.07;;;15.50;85.10;;;;;;5015295;28;20471;-67
2023/04/21 09:44:03;;;;;;;12.10;10.95;;;15.60;84.00;;;;;;5015452;28;20153;-65
2023/04/21 09:46:33;;;;;;;18.38;12.82;;;15.60;83.50;;;;;;5014950;28;20026;-68
2023/04/21 09:49:03;;;;;;;15.52;11.70;;;15.60;81.90;;;;;;5015259;28;20022;-65
2023/04/21 09:51:30;;;;;;;13.13;11.82;;;15.60;82.20;;;;;;5015279;28;20482;-62
2023/04/21 09:54:03;;;;;;;12.25;10.32;;;15.60;82.00;;;;;;5013837;28;20382;-69
2023/04/21 09:56:32;;;;;;;12.10;10.77;;;15.60;81.50;;;;;;5015142;28;20026;-68
2023/04/21 09:59:01;;;;;;;7.97;7.28;;;15.60;81.00;;;;;;5015393;28;20368;-66
2023/04/21 10:01:29;;;;;;;9.38;8.48;;;15.60;82.50;;;;;;5014799;28;20030;-65
2023/04/21 10:03:55;;;;;;;12.65;11.45;;;15.60;83.20;;;;;;5015172;28;20064;-64
2023/04/21 10:06:21;;;;;;;14.15;12.68;;;15.60;82.60;;;;;;5013682;28;20037;-66
2023/04/21 10:08:49;;;;;;;14.50;13.00;;;15.70;83.40;;;;;;5012651;28;20029;-64
2023/04/21 10:11:16;;;;;;;8.82;7.93;;;15.70;83.90;;;;;;5012723;28;20022;-68
2023/04/21 10:13:42;;;;;;;10.50;9.60;;;15.70;83.70;;;;;;5013053;28;20423;-66
2023/04/21 10:16:09;;;;;;;12.60;11.40;;;15.80;84.20;;;;;;5014174;28;20018;-68
2023/04/21 10:18:42;;;;;;;12.70;11.40;;;15.80;83.20;;;;;;5014238;28;20494;-65
2023/04/21 10:21:10;;;;;;;13.77;11.65;;;15.80;81.70;;;;;;5013802;28;20049;-66
2023/04/21 10:23:41;;;;;;;12.18;11.02;;;15.80;81.40;;;;;;5012962;28;20027;-66
2023/04/21 10:26:14;;;;;;;11.95;10.75;;;15.80;81.80;;;;;;5014626;28;20029;-65
2023/04/21 10:29:03;;;;;;;13.80;12.35;;;15.80;81.60;;;;;;5013191;28;20026;-65
2023/04/21 10:31:35;;;;;;;16.08;14.48;;;15.80;81.10;;;;;;4988428;28;20042;-66
2023/04/21 10:34:04;;;;;;;;;;;15.80;82.00;;;;;;5024458;28;20458;-67
2023/04/21 10:36:29;;;;;;;10.70;9.60;;;15.80;82.10;;;;;;5025350;28;19928;-68
2023/04/21 10:38:56;;;;;;;15.27;13.68;;;15.80;82.60;;;;;;5017810;28;20025;-65
2023/04/21 10:41:27;;;;;;;13.43;12.10;;;15.80;81.00;;;;;;5022771;28;20106;-66
2023/04/21 10:43:52;;;;;;;12.77;11.40;;;15.80;81.60;;;;;;5032539;28;20026;-66
2023/04/21 10:46:51;;;;;;;11.65;10.45;;;15.80;79.70;;;;;;5017600;28;20144;-68
2023/04/21 10:49:29;;;;;;;13.75;12.10;;;15.90;81.20;;;;;;4970891;28;20088;-64
2023/04/21 10:54:28;;;;;;;14.57;12.80;;;15.90;82.20;;;;;;5014063;28;20117;-66
2023/04/21 10:56:55;;;;;;;13.35;12.05;;;15.90;80.20;;;;;;5014129;28;20517;-67
2023/04/21 10:59:21;;;;;;;12.38;11.07;;;15.90;80.10;;;;;;5013476;28;20496;-64
2023/04/21 11:01:47;;;;;;;14.82;12.45;;;15.90;79.90;;;;;;5013944;28;20033;-63
2023/04/21 11:04:14;;;;;;;11.57;10.38;;;15.90;79.10;;;;;;5012541;28;20044;-66
2023/04/21 11:06:40;;;;;;;12.35;11.15;;;16.00;78.30;;;;;;5012945;28;20021;-64
2023/04/21 11:09:06;;;;;;;13.35;11.88;;;15.90;77.40;;;;;;5013852;28;20022;-68
2023/04/21 11:11:31;;;;;;;12.60;11.30;;;15.90;78.50;;;;;;5013836;28;20030;-65
2023/04/21 11:14:00;;;;;;;11.65;10.52;;;15.90;78.90;;;;;;5013587;28;20386;-63
2023/04/21 11:16:26;;;;;;;11.60;10.45;;;16.00;79.00;;;;;;5013595;28;20119;-63
2023/04/21 11:18:51;;;;;;;10.50;9.07;;;16.00;77.90;;;;;;5013911;28;20490;-66
2023/04/21 11:21:21;;;;;;;11.85;8.15;;;15.90;75.00;;;;;;5013394;28;20038;-65
2023/04/21 11:23:49;;;;;;;9.52;8.63;;;16.00;75.30;;;;;;5013499;28;20026;-68
2023/04/21 11:26:15;;;;;;;10.80;9.70;;;16.00;75.10;;;;;;5013492;28;20026;-64
2023/04/21 11:28:40;;;;;;;10.45;8.95;;;16.00;74.80;;;;;;5013016;28;20032;-63
2023/04/21 11:31:07;;;;;;;8.55;7.72;;;16.00;75.20;;;;;;5013374;28;20018;-65
2023/04/21 11:33:38;;;;;;;9.15;8.23;;;16.00;76.50;;;;;;5013468;28;20390;-64
2023/04/21 11:36:05;;;;;;;12.18;11.02;;;16.10;76.40;;;;;;5013333;28;20502;-69
2023/04/21 11:38:40;;;;;;;12.20;10.98;;;16.10;76.70;;;;;;5013323;28;20022;-65
2023/04/21 11:41:08;;;;;;;12.38;11.07;;;16.10;76.70;;;;;;5013026;28;20042;-66
2023/04/21 11:43:34;;;;;;;12.50;11.20;;;16.10;76.70;;;;;;5013341;28;20034;-68
2023/04/21 11:46:21;;;;;;;12.95;10.73;;;16.20;76.80;;;;;;5013227;28;20455;-66
2023/04/21 11:49:01;;;;;;;11.88;10.68;;;16.20;77.10;;;;;;5013023;28;20025;-63
2023/04/21 11:51:35;;;;;;;12.30;11.00;;;16.10;76.50;;;;;;5012867;28;20022;-66
2023/04/21 11:54:01;;;;;;;11.10;10.00;;;16.20;75.50;;;;;;5013126;28;20044;-66
2023/04/21 11:56:26;;;;;;;13.88;10.38;;;16.20;75.90;;;;;;5012576;28;20030;-63
2023/04/21 11:58:52;;;;;;;11.65;10.50;;;16.20;75.80;;;;;;5012985;28;20030;-66
2023/04/21 12:01:19;;;;;;;12.20;9.68;;;16.20;75.90;;;;;;5012896;28;20076;-64
2023/04/21 12:03:55;;;;;;;11.30;10.20;;;16.20;75.30;;;;;;5008396;28;20105;-65
2023/04/21 12:06:27;;;;;;;13.88;10.48;;;16.30;75.40;;;;;;5009328;28;20026;-64
2023/04/21 12:09:00;;;;;;;11.65;10.45;;;16.30;75.30;;;;;;4994156;28;20026;-70
2023/04/21 12:11:30;;;;;;;11.90;10.68;;;16.30;75.40;;;;;;5011357;28;20029;-63
2023/04/21 12:13:57;;;;;;;11.10;9.82;;;16.30;75.30;;;;;;5011527;28;20066;-68
2023/04/21 12:16:27;;;;;;;11.93;10.73;;;16.30;75.60;;;;;;4993157;28;20026;-63
2023/04/21 12:18:53;;;;;;;11.13;10.02;;;16.40;74.80;;;;;;4995360;28;20029;-68
2023/04/21 12:21:19;;;;;;;11.75;10.65;;;16.40;75.40;;;;;;5008262;28;20121;-66
2023/04/21 12:23:44;;;;;;;13.80;12.40;;;16.40;75.60;;;;;;5010885;28;20104;-65
2023/04/21 12:26:10;;;;;;;10.95;9.95;;;16.50;76.20;;;;;;5012257;28;20030;-68
2023/04/21 12:28:37;;;;;;;17.60;13.85;;;16.50;76.50;;;;;;5012602;28;20044;-64
2023/04/21 12:31:03;;;;;;;12.60;11.23;;;16.50;76.00;;;;;;5010166;28;20080;-63